Time;durP1;ratioP1;P1;durP2;ratioP2;P2;SDS_P1;SDS_P2;PMS_P1;PMS_P2;Temp;Humidity;BMP_temperature;BMP_pressure;BME280_temperature;BME280_humidity;BME280_pressure;Samples;Min_cycle;Max_cycle;Signal;HPM_P1;HPM_P2
2021/12/25 00:02:46;;;;;;;0.20;0.20;;;;;;;16.85;51.46;95499.81;10410724;28;20025;-22
2021/12/25 00:07:46;;;;;;;0.20;0.20;;;;;;;16.85;51.31;95497.28;10411813;28;20025;-21
2021/12/25 00:12:48;;;;;;;0.30;0.30;;;;;;;16.85;51.52;95494.75;10406857;28;20115;-21
2021/12/25 00:17:49;;;;;;;0.20;0.20;;;;;;;16.77;51.13;95472.97;10410812;28;20387;-21
2021/12/25 00:22:49;;;;;;;0.17;0.10;;;;;;;16.82;51.57;95474.59;10410739;28;20029;-21
2021/12/25 00:32:58;;;;;;;0.20;0.20;;;;;;;16.93;51.59;95482.84;10408588;28;20036;-21
2021/12/25 00:37:59;;;;;;;0.10;0.10;;;;;;;16.98;51.29;95481.09;10409262;28;20029;-22
2021/12/25 00:42:59;;;;;;;0.73;0.33;;;;;;;16.97;51.36;95476.88;10408151;28;20037;-21
2021/12/25 00:48:00;;;;;;;0.40;0.30;;;;;;;16.84;51.58;95467.81;10408843;28;20288;-21
2021/12/25 00:53:00;;;;;;;0.27;0.20;;;;;;;16.85;51.29;95464.41;10408066;28;20086;-21
2021/12/25 00:58:01;;;;;;;0.30;0.27;;;;;;;16.81;51.41;95463.63;10406707;28;20036;-21
2021/12/25 01:03:01;;;;;;;0.20;0.20;;;;;;;16.79;51.38;95470.41;10407491;28;20031;-21
2021/12/25 01:08:03;;;;;;;0.30;0.30;;;;;;;16.78;51.38;95471.25;10408984;28;20061;-22
2021/12/25 01:23:58;;;;;;;0.32;0.32;;;;;;;16.77;51.61;95466.22;10407521;28;20028;-21
2021/12/25 01:39:40;;;;;;;0.25;0.25;;;;;;;16.96;51.25;95465.94;10408507;28;20067;-21
2021/12/25 01:50:36;;;;;;;0.40;0.30;;;;;;;16.83;51.27;95456.03;10399475;28;20037;-21
2021/12/25 01:55:38;;;;;;;0.30;0.30;;;;;;;16.80;51.37;95456.03;10406663;28;20087;-21
2021/12/25 02:00:49;;;;;;;0.30;0.20;;;;;;;16.78;51.65;95447.66;10405224;28;20125;-21
2021/12/25 02:05:49;;;;;;;0.17;0.15;;;;;;;16.77;51.80;95458.63;10406443;28;20053;-21
2021/12/25 02:10:50;;;;;;;0.30;0.30;;;;;;;16.69;51.83;95446.97;10406443;28;20159;-21
2021/12/25 02:15:53;;;;;;;0.43;0.25;;;;;;;16.77;51.38;95466.22;10405221;28;20029;-21
2021/12/25 02:21:34;;;;;;;0.43;0.38;;;;;;;16.77;51.80;95466.22;10404402;28;20037;-21
2021/12/25 02:26:24;;;;;;;0.13;0.13;;;;;;;16.74;51.56;95453.63;10400849;28;20092;-21
2021/12/25 02:31:25;;;;;;;0.20;0.20;;;;;;;16.73;51.77;95447.72;10404622;28;20113;-21
2021/12/25 02:36:26;;;;;;;0.20;0.20;;;;;;;16.84;51.60;95457.69;10404367;28;20037;-21
2021/12/25 02:41:26;;;;;;;0.10;0.10;;;;;;;16.87;51.33;95445.00;10404311;28;20426;-21
2021/12/25 02:46:27;;;;;;;0.30;0.30;;;;;;;16.88;51.32;95456.78;10403940;28;20493;-21
2021/12/25 02:51:27;;;;;;;0.40;0.30;;;;;;;16.79;51.23;95446.81;10403653;28;20088;-21
2021/12/25 02:56:28;;;;;;;0.38;0.20;;;;;;;16.77;51.42;95449.38;10404648;28;20497;-21
2021/12/25 03:01:28;;;;;;;0.40;0.30;;;;;;;16.69;51.48;95432.63;10403660;28;20028;-22
2021/12/25 03:06:34;;;;;;;0.28;0.28;;;;;;;16.72;51.79;95441.84;10404000;28;20025;-21
2021/12/25 03:11:34;;;;;;;0.30;0.30;;;;;;;16.74;51.34;95448.56;10400690;28;20034;-21
2021/12/25 03:16:35;;;;;;;0.30;0.30;;;;;;;16.73;51.63;95444.38;10405786;28;20571;-21
2021/12/25 03:21:35;;;;;;;0.27;0.20;;;;;;;16.69;51.84;95437.69;10403472;28;20419;-21
2021/12/25 03:26:36;;;;;;;0.20;0.20;;;;;;;16.70;51.58;95444.41;10406587;28;20567;-21
2021/12/25 03:31:36;;;;;;;0.25;0.20;;;;;;;16.71;51.70;95446.06;10414366;28;20136;-21
2021/12/25 03:36:37;;;;;;;0.20;0.20;;;;;;;16.72;51.62;95439.34;10410766;28;20033;-21
2021/12/25 03:41:37;;;;;;;0.10;0.10;;;;;;;16.83;51.76;95448.44;10403812;28;20033;-21
2021/12/25 03:46:39;;;;;;;0.30;0.30;;;;;;;16.86;51.28;95454.28;10413209;28;20392;-21
2021/12/25 04:02:26;;;;;;;0.20;0.20;;;;;;;16.71;51.56;95437.66;10409074;28;20025;-20
2021/12/25 04:07:58;;;;;;;0.10;0.10;;;;;;;16.70;51.77;95441.88;10410836;28;20042;-21
2021/12/25 04:12:56;;;;;;;0.25;0.20;;;;;;;16.69;51.48;95430.09;10407587;28;20557;-21
2021/12/25 04:17:57;;;;;;;0.17;0.17;;;;;;;16.64;51.54;95424.28;10409644;28;20025;-21
2021/12/25 04:23:05;;;;;;;0.30;0.30;;;;;;;16.67;51.82;95431.81;10409895;28;20287;-21
2021/12/25 04:28:31;;;;;;;0.10;0.10;;;;;;;16.68;51.65;95438.53;10409880;28;20172;-21
2021/12/25 05:05:47;;;;;;;0.32;0.30;;;;;;;16.67;51.81;95429.28;10406386;28;20442;-21
2021/12/25 05:10:57;;;;;;;0.60;0.40;;;;;;;16.65;51.72;95415.84;10404689;28;20041;-21
2021/12/25 05:15:57;;;;;;;1.10;0.30;;;;;;;16.65;51.85;95425.09;10407859;28;20045;-21
2021/12/25 05:20:57;;;;;;;0.22;0.22;;;;;;;16.64;51.52;95424.28;10404306;28;20033;-21
2021/12/25 05:25:59;;;;;;;0.30;0.30;;;;;;;16.64;51.71;95421.75;10402787;28;20041;-21
2021/12/25 05:30:59;;;;;;;0.22;0.22;;;;;;;16.62;51.66;95410.81;10404070;28;20026;-21
2021/12/25 05:36:30;;;;;;;0.20;0.20;;;;;;;16.61;51.56;95419.25;10406661;28;20034;-20
2021/12/25 05:41:53;;;;;;;0.40;0.35;;;;;;;16.63;51.91;95415.00;10405783;28;20125;-21
2021/12/25 05:46:57;;;;;;;0.50;0.28;;;;;;;16.75;51.46;95407.28;10407018;28;20040;-21
2021/12/25 05:51:57;;;;;;;0.30;0.30;;;;;;;16.78;51.36;95412.28;10404229;28;20503;-21
2021/12/25 05:57:03;;;;;;;0.50;0.40;;;;;;;16.78;51.34;95425.75;10404873;28;20385;-21
2021/12/25 06:02:21;;;;;;;0.20;0.20;;;;;;;16.62;51.65;95404.94;10405251;28;20474;-21
2021/12/25 06:07:22;;;;;;;0.30;0.30;;;;;;;16.63;51.81;95427.66;10420309;28;20034;-22
2021/12/25 06:12:23;;;;;;;0.20;0.20;;;;;;;16.62;51.57;95422.63;10402911;28;20454;-21
2021/12/25 06:17:26;;;;;;;0.10;0.10;;;;;;;16.60;51.83;95422.66;10397066;28;20333;-21
2021/12/25 06:22:33;;;;;;;0.20;0.20;;;;;;;16.62;51.65;95425.16;10405306;28;20091;-21
2021/12/25 06:27:53;;;;;;;0.30;0.10;;;;;;;16.61;51.57;95439.47;10401760;28;20032;-21
2021/12/25 06:33:13;;;;;;;0.45;0.43;;;;;;;16.59;52.00;95445.41;10404429;28;20443;-20
2021/12/25 06:38:33;;;;;;;0.25;0.22;;;;;;;16.60;51.90;95442.84;10399487;28;20037;-20
2021/12/25 06:43:39;;;;;;;0.20;0.20;;;;;;;16.60;51.73;95437.81;10404047;28;20056;-20
2021/12/25 06:48:41;;;;;;;0.20;0.20;;;;;;;16.69;51.40;95442.72;10402832;28;20038;-20
2021/12/25 06:53:44;;;;;;;0.30;0.20;;;;;;;16.73;51.53;95443.53;10406095;28;20451;-20
2021/12/25 06:59:04;;;;;;;0.50;0.40;;;;;;;16.72;51.69;95436.81;10398895;28;20061;-20
2021/12/25 07:04:08;;;;;;;0.35;0.20;;;;;;;16.62;51.55;95441.13;10407419;28;20025;-20
2021/12/25 07:09:35;;;;;;;0.20;0.20;;;;;;;16.59;51.89;95431.09;10409636;28;20073;-20
2021/12/25 07:14:52;;;;;;;;;;;;;;;16.58;51.48;95429.41;10412388;28;20034;-20
2021/12/25 07:20:10;;;;;;;0.20;0.20;;;;;;;16.58;51.68;95424.38;10410753;28;19913;-20
2021/12/25 07:25:30;;;;;;;0.25;0.25;;;;;;;16.58;51.50;95437.00;10407092;28;20037;-20
2021/12/25 07:30:45;;;;;;;0.32;0.32;;;;;;;16.58;51.56;95434.47;10412565;28;20037;-20
2021/12/25 07:35:45;;;;;;;0.33;0.33;;;;;;;16.57;51.57;95447.97;10411859;28;20029;-20
2021/12/25 07:40:47;;;;;;;0.50;0.50;;;;;;;16.55;51.70;95441.25;10411608;28;20028;-20
2021/12/25 07:45:48;;;;;;;0.28;0.28;;;;;;;16.54;51.89;95445.44;10408001;28;20713;-20
2021/12/25 07:50:49;;;;;;;0.15;0.15;;;;;;;16.58;51.43;95437.00;10410816;28;20053;-20
2021/12/25 07:55:50;;;;;;;0.43;0.40;;;;;;;16.69;51.44;95442.72;10409369;28;20060;-20
2021/12/25 08:00:51;;;;;;;0.20;0.20;;;;;;;16.67;51.59;95439.41;10412007;28;20108;-20
2021/12/25 08:05:52;;;;;;;0.30;0.30;;;;;;;16.61;51.58;95439.47;10409860;28;20495;-20
2021/12/25 08:10:52;;;;;;;0.50;0.30;;;;;;;16.53;51.79;95441.25;10411364;28;20040;-20
2021/12/25 08:15:53;;;;;;;0.30;0.27;;;;;;;16.56;51.77;95443.78;10408661;28;20129;-20
2021/12/25 08:20:53;;;;;;;0.30;0.30;;;;;;;16.56;51.63;95453.03;10410423;28;20523;-20
2021/12/25 08:26:12;;;;;;;0.28;0.25;;;;;;;16.52;52.04;95457.28;10411183;28;20045;-20
2021/12/25 08:31:41;;;;;;;0.30;0.30;;;;;;;16.48;51.76;95448.06;10407763;28;20033;-20
2021/12/25 08:37:12;;;;;;;0.30;0.30;;;;;;;16.51;51.96;95463.19;10390852;28;20034;-20
2021/12/25 08:42:12;;;;;;;0.30;0.30;;;;;;;16.49;52.00;95464.91;10409331;28;20041;-20
2021/12/25 08:47:13;;;;;;;0.30;0.20;;;;;;;16.50;51.84;95465.72;10408519;28;20041;-20
2021/12/25 08:52:15;;;;;;;0.30;0.30;;;;;;;16.49;51.97;95475.00;10409091;28;20545;-20
2021/12/25 08:57:19;;;;;;;0.40;0.40;;;;;;;16.65;51.77;95466.38;10405305;28;20041;-20
2021/12/25 09:02:20;;;;;;;0.40;0.40;;;;;;;16.63;51.29;95473.13;10407665;28;20044;-20
2021/12/25 09:07:21;;;;;;;0.40;0.40;;;;;;;16.61;51.77;95479.91;10409705;28;20041;-20
2021/12/25 09:12:23;;;;;;;0.30;0.30;;;;;;;16.54;51.59;95478.28;10404182;28;20033;-20
2021/12/25 09:17:24;;;;;;;0.40;0.40;;;;;;;16.52;51.93;95485.06;10407952;28;20048;-20
2021/12/25 09:22:24;;;;;;;0.30;0.30;;;;;;;16.53;51.89;95486.72;10408790;28;20044;-20
2021/12/25 09:27:24;;;;;;;0.30;0.20;;;;;;;16.52;51.96;95489.28;10405659;28;20514;-20
2021/12/25 09:32:25;;;;;;;0.63;0.50;;;;;;;16.51;51.89;95477.50;10407315;28;20060;-20
2021/12/25 09:37:29;;;;;;;0.60;0.30;;;;;;;16.48;51.97;95483.44;10408020;28;20034;-21
2021/12/25 09:42:30;;;;;;;0.20;0.20;;;;;;;16.49;51.93;95494.38;10405923;28;20484;-20
2021/12/25 09:47:31;;;;;;;0.32;0.32;;;;;;;16.48;51.99;95488.50;10406441;28;20058;-20
2021/12/25 09:52:32;;;;;;;0.40;0.28;;;;;;;16.48;51.93;95477.53;10406665;28;20432;-20
2021/12/25 09:57:33;;;;;;;0.30;0.25;;;;;;;16.56;52.10;95486.72;10401791;28;20022;-20
2021/12/25 10:02:42;;;;;;;0.47;0.30;;;;;;;16.62;51.70;95473.16;10406085;28;20496;-20
2021/12/25 10:07:42;;;;;;;0.30;0.30;;;;;;;16.61;51.38;95482.41;10402078;28;20033;-20
2021/12/25 10:12:48;;;;;;;0.40;0.40;;;;;;;16.56;51.84;95478.28;10402548;28;20820;-20
2021/12/25 10:17:54;;;;;;;0.32;0.30;;;;;;;16.51;51.77;95468.25;10405328;28;20021;-20
2021/12/25 10:22:57;;;;;;;0.20;0.20;;;;;;;16.41;52.25;95460.78;10406848;28;20037;-20
2021/12/25 10:28:02;;;;;;;0.50;0.50;;;;;;;16.46;52.13;95464.09;10401987;28;20048;-20
2021/12/25 10:33:03;;;;;;;0.30;0.28;;;;;;;16.46;51.92;95466.63;10405038;28;20061;-20
2021/12/25 10:38:11;;;;;;;0.40;0.40;;;;;;;16.47;51.83;95461.56;10405294;28;20053;-20
2021/12/25 10:43:20;;;;;;;0.30;0.30;;;;;;;16.38;51.92;95451.53;10405786;28;20069;-20
2021/12/25 10:48:27;;;;;;;0.30;0.20;;;;;;;16.46;52.24;95464.09;10403893;28;20084;-20
2021/12/25 10:53:41;;;;;;;0.20;0.20;;;;;;;16.45;51.78;95459.91;10398471;28;20512;-20
2021/12/25 10:58:43;;;;;;;0.20;0.20;;;;;;;16.46;52.09;95448.94;10403901;28;20028;-20
2021/12/25 11:03:46;;;;;;;0.20;0.20;;;;;;;16.57;51.75;95447.97;10405227;28;20144;-21
2021/12/25 11:08:48;;;;;;;0.30;0.30;;;;;;;16.60;51.78;95450.44;10405802;28;20029;-20
2021/12/25 11:13:51;;;;;;;0.30;0.25;;;;;;;16.57;51.41;95442.91;10400968;28;20048;-20
2021/12/25 11:19:09;;;;;;;0.32;0.30;;;;;;;16.49;51.57;95452.28;10404683;28;20089;-20
2021/12/25 11:24:16;;;;;;;0.40;0.40;;;;;;;16.47;51.61;95445.56;10405759;28;20046;-20
2021/12/25 11:29:19;;;;;;;0.25;0.25;;;;;;;16.45;52.19;95443.03;10400800;28;20450;-21
2021/12/25 11:34:20;;;;;;;0.57;0.40;;;;;;;16.45;51.92;95448.09;10404245;28;20420;-20
2021/12/25 11:39:23;;;;;;;0.20;0.20;;;;;;;16.45;51.71;95443.03;10405857;28;20113;-20
2021/12/25 11:44:36;;;;;;;0.55;0.40;;;;;;;16.44;52.13;95441.38;10396660;28;20381;-20
2021/12/25 11:49:53;;;;;;;0.50;0.30;;;;;;;16.45;52.21;95443.03;10406624;28;20057;-20
2021/12/25 11:59:56;;;;;;;0.40;0.40;;;;;;;16.30;51.80;95420.47;10407712;28;20032;-20
2021/12/25 12:05:27;;;;;;;0.30;0.28;;;;;;;16.44;52.16;95441.38;10410694;28;20033;-20
2021/12/25 12:10:46;;;;;;;0.20;0.20;;;;;;;16.55;51.68;95439.53;10407767;28;20389;-20
2021/12/25 12:16:05;;;;;;;0.43;0.40;;;;;;;16.55;51.86;95439.53;10410161;28;20057;-20
2021/12/25 12:21:24;;;;;;;0.38;0.30;;;;;;;16.40;52.06;95444.81;10409050;28;20029;-20
2021/12/25 12:26:49;;;;;;;0.50;0.15;;;;;;;16.46;51.84;95452.28;10407271;28;20033;-20
2021/12/25 12:31:49;;;;;;;0.20;0.20;;;;;;;16.45;51.76;95444.75;10410696;28;20045;-20
2021/12/25 12:36:50;;;;;;;0.30;0.30;;;;;;;16.41;51.91;95441.44;10410029;28;20047;-20
2021/12/25 12:41:53;;;;;;;0.47;0.40;;;;;;;16.42;51.80;95432.13;10407825;28;20299;-20
2021/12/25 12:46:59;;;;;;;0.30;0.30;;;;;;;16.42;51.91;95434.66;10410453;28;20063;-20
2021/12/25 12:52:20;;;;;;;0.25;0.22;;;;;;;16.40;52.29;95427.13;10408441;28;20072;-20
2021/12/25 12:57:32;;;;;;;0.20;0.20;;;;;;;16.39;51.76;95428.00;10408976;28;20055;-20
2021/12/25 13:02:46;;;;;;;0.43;0.40;;;;;;;16.40;52.53;95427.13;10406876;28;20033;-20
2021/12/25 13:07:49;;;;;;;0.30;0.28;;;;;;;16.42;51.87;95424.56;10405264;28;20033;-20
2021/12/25 13:12:51;;;;;;;0.50;0.30;;;;;;;16.51;52.02;95422.75;10405004;28;20539;-20
2021/12/25 13:17:57;;;;;;;0.20;0.20;;;;;;;16.54;51.86;95416.84;10407837;28;20025;-20
2021/12/25 13:23:00;;;;;;;0.50;0.47;;;;;;;16.22;51.87;95379.34;10408895;28;20052;-20
2021/12/25 13:28:03;;;;;;;0.30;0.30;;;;;;;16.43;52.11;95414.44;10406266;28;20159;-21
2021/12/25 13:33:13;;;;;;;0.20;0.20;;;;;;;16.43;52.04;95404.34;10404958;28;20044;-20
2021/12/25 13:38:15;;;;;;;0.20;0.20;;;;;;;16.42;51.95;95407.72;10407914;28;20033;-20
2021/12/25 13:43:16;;;;;;;0.65;0.35;;;;;;;16.38;51.92;95406.09;10403626;28;20037;-20
2021/12/25 13:48:17;;;;;;;0.52;0.30;;;;;;;16.39;52.19;95405.25;10406215;28;20045;-21
2021/12/25 13:53:18;;;;;;;0.30;0.30;;;;;;;16.38;52.23;95407.78;10407624;28;20048;-20
2021/12/25 13:58:18;;;;;;;0.40;0.40;;;;;;;16.36;51.85;95405.25;10406427;28;20045;-20
2021/12/25 14:03:26;;;;;;;0.25;0.25;;;;;;;16.36;52.11;95407.78;10406511;28;20507;-20
2021/12/25 14:08:28;;;;;;;0.40;0.30;;;;;;;16.37;51.89;95413.69;10400817;28;20410;-20
2021/12/25 14:13:31;;;;;;;0.30;0.30;;;;;;;16.39;52.01;95414.50;10404287;28;20065;-20
2021/12/25 14:18:37;;;;;;;0.20;0.20;;;;;;;16.46;52.08;95416.94;10406150;28;20087;-20
2021/12/25 14:23:38;;;;;;;0.30;0.30;;;;;;;16.49;51.91;95419.44;10406359;28;20033;-20
2021/12/25 14:28:38;;;;;;;0.23;0.20;;;;;;;16.39;51.92;95422.94;10402390;28;20499;-20
2021/12/25 14:34:00;;;;;;;0.20;0.20;;;;;;;16.36;51.90;95433.03;10405093;28;20400;-20
2021/12/25 14:39:01;;;;;;;0.20;0.20;;;;;;;16.37;51.94;95429.66;10406005;28;20599;-21
2021/12/25 14:44:17;;;;;;;0.30;0.30;;;;;;;16.35;52.17;95421.25;10403507;28;20036;-20
2021/12/25 14:49:18;;;;;;;0.45;0.40;;;;;;;16.35;52.07;95426.31;10404945;28;20030;-20
2021/12/25 14:54:28;;;;;;;0.20;0.20;;;;;;;16.35;52.10;95431.34;10406006;28;20055;-20
2021/12/25 14:59:29;;;;;;;0.35;0.35;;;;;;;16.24;52.16;95413.00;10402546;28;20435;-20
2021/12/25 15:04:33;;;;;;;0.32;0.32;;;;;;;16.35;52.10;95428.84;10404644;28;20083;-20
2021/12/25 15:09:36;;;;;;;0.30;0.30;;;;;;;16.34;52.35;95432.22;10405522;28;20041;-20
2021/12/25 15:14:39;;;;;;;0.20;0.20;;;;;;;16.34;52.18;95429.69;10402996;28;20048;-20
2021/12/25 15:19:46;;;;;;;0.30;0.30;;;;;;;16.40;52.13;95424.59;10404507;28;20036;-20
2021/12/25 15:25:03;;;;;;;0.23;0.20;;;;;;;16.44;51.75;95438.84;10409538;28;20041;-20
2021/12/25 15:30:10;;;;;;;0.35;0.35;;;;;;;16.45;51.83;95447.28;10410337;28;20049;-20
2021/12/25 15:35:15;;;;;;;0.50;0.40;;;;;;;16.34;51.97;95439.78;10410470;28;20116;-20
2021/12/25 15:40:19;;;;;;;0.35;0.35;;;;;;;16.35;52.09;95446.50;10412383;28;20025;-20
2021/12/25 15:45:20;;;;;;;1.48;0.50;;;;;;;16.32;52.09;95448.22;10412577;28;20029;-20
2021/12/25 15:50:24;;;;;;;0.47;0.47;;;;;;;16.30;52.24;95450.75;10410634;28;20609;-20
2021/12/25 15:55:30;;;;;;;0.60;0.35;;;;;;;16.32;51.96;95449.09;10405268;28;20041;-20
2021/12/25 16:00:37;;;;;;;0.20;0.20;;;;;;;16.31;52.03;95464.25;10410099;28;20488;-20
2021/12/25 16:05:38;;;;;;;;;;;;;;;16.29;51.98;95469.31;10411155;28;20038;-20
2021/12/25 16:10:39;;;;;;;0.38;0.38;;;;;;;16.26;52.39;95466.81;10411381;28;19913;-20
2021/12/25 16:15:39;;;;;;;0.40;0.30;;;;;;;16.24;52.12;95463.50;10406936;28;20045;-20
2021/12/25 16:20:39;;;;;;;0.50;0.40;;;;;;;16.27;51.99;95460.91;10410304;28;20041;-20
2021/12/25 16:25:40;;;;;;;0.35;0.30;;;;;;;16.39;52.01;95468.41;10411772;28;20507;-20
2021/12/25 16:30:42;;;;;;;0.50;0.50;;;;;;;16.41;51.86;95464.16;10408992;28;20037;-20
2021/12/25 16:35:43;;;;;;;0.45;0.40;;;;;;;16.36;52.04;95462.50;10408530;28;20087;-20
2021/12/25 16:40:43;;;;;;;0.25;0.22;;;;;;;16.30;52.01;95463.41;10410660;28;20400;-20
2021/12/25 16:45:44;;;;;;;0.30;0.30;;;;;;;16.30;51.79;95463.41;10406443;28;20040;-20
2021/12/25 16:50:44;;;;;;;0.40;0.30;;;;;;;16.19;52.01;95455.13;10408964;28;20029;-20
2021/12/25 16:55:46;;;;;;;0.40;0.35;;;;;;;16.27;52.55;95460.91;10410286;28;20045;-20
2021/12/25 17:00:47;;;;;;;0.50;0.40;;;;;;;16.28;52.38;95461.75;10404332;28;20075;-20
2021/12/25 17:05:49;;;;;;;0.28;0.28;;;;;;;16.04;52.20;95430.03;10408598;28;20503;-20
2021/12/25 17:10:50;;;;;;;0.60;0.50;;;;;;;16.21;52.03;95467.72;10408947;28;20175;-20
2021/12/25 17:15:52;;;;;;;0.30;0.30;;;;;;;16.26;52.28;95473.53;10403641;28;20638;-20
2021/12/25 17:20:53;;;;;;;0.73;0.45;;;;;;;16.25;52.17;95475.25;10407191;28;20041;-20
2021/12/25 17:25:56;;;;;;;0.38;0.38;;;;;;;16.25;51.89;95485.34;10405616;28;20059;-20
2021/12/25 17:30:57;;;;;;;0.50;0.35;;;;;;;16.36;51.75;95487.78;10408908;28;20041;-20
2021/12/25 17:35:58;;;;;;;0.25;0.25;;;;;;;16.33;51.89;95478.53;10407593;28;20554;-20
2021/12/25 17:41:04;;;;;;;0.30;0.30;;;;;;;16.37;52.07;95490.28;10408271;28;20036;-20
2021/12/25 17:46:05;;;;;;;0.28;0.28;;;;;;;16.27;51.73;95491.22;10407290;28;20029;-20
2021/12/25 17:51:06;;;;;;;0.20;0.20;;;;;;;16.24;51.84;95483.69;10407072;28;20086;-20
2021/12/25 17:56:06;;;;;;;0.38;0.35;;;;;;;16.21;52.23;95486.22;10407671;28;20045;-20
2021/12/25 18:01:07;;;;;;;0.40;0.40;;;;;;;16.24;51.89;95486.22;10399900;28;20036;-20
2021/12/25 18:06:07;;;;;;;0.43;0.43;;;;;;;16.22;52.35;95485.41;10406071;28;20094;-20
2021/12/25 18:11:08;;;;;;;0.73;0.60;;;;;;;16.22;52.05;95490.44;10405747;28;20025;-20
2021/12/25 18:16:09;;;;;;;0.40;0.30;;;;;;;16.13;52.32;95474.56;10407184;28;20342;-20
2021/12/25 18:21:10;;;;;;;0.50;0.40;;;;;;;16.18;52.30;95483.75;10405384;28;20029;-20
2021/12/25 18:26:10;;;;;;;0.30;0.30;;;;;;;16.21;52.04;95482.88;10406316;28;20039;-20
2021/12/25 18:31:13;;;;;;;0.45;0.43;;;;;;;16.19;52.35;95489.66;10403418;28;20063;-20
2021/12/25 18:36:14;;;;;;;0.20;0.20;;;;;;;16.24;52.19;95483.69;10404802;28;20570;-20
2021/12/25 18:41:14;;;;;;;0.38;0.38;;;;;;;16.32;52.20;95488.63;10401674;28;20099;-20
2021/12/25 18:46:15;;;;;;;0.45;0.30;;;;;;;16.33;51.70;95488.63;10406139;28;20041;-21
2021/12/25 18:51:15;;;;;;;0.30;0.30;;;;;;;16.26;51.94;95489.53;10404434;28;20488;-20
2021/12/25 18:56:17;;;;;;;0.43;0.30;;;;;;;16.21;52.04;95483.69;10399803;28;20395;-20
2021/12/25 19:01:19;;;;;;;0.60;0.47;;;;;;;16.21;52.25;95493.81;10411935;28;20352;-19
2021/12/25 19:06:19;;;;;;;0.30;0.30;;;;;;;16.21;52.21;95491.28;10413065;28;20056;-20
2021/12/25 19:11:20;;;;;;;0.55;0.50;;;;;;;16.18;52.09;95493.84;10412733;28;20029;-20
2021/12/25 19:16:23;;;;;;;0.30;0.30;;;;;;;16.17;52.20;95492.19;10413962;28;20103;-20
2021/12/25 19:21:24;;;;;;;0.50;0.30;;;;;;;16.16;52.42;95490.50;10413278;28;20040;-20
2021/12/25 19:26:24;;;;;;;0.40;0.40;;;;;;;16.17;52.28;95482.06;10407961;28;20414;-20
2021/12/25 19:31:25;;;;;;;0.45;0.45;;;;;;;16.14;52.00;95489.69;10413713;28;20091;-20
2021/12/25 19:36:26;;;;;;;0.40;0.40;;;;;;;16.14;52.28;95488.84;10411615;28;20041;-20
2021/12/25 19:41:28;;;;;;;0.30;0.30;;;;;;;16.19;52.06;95485.41;10413071;28;20307;-20
2021/12/25 19:46:31;;;;;;;0.30;0.30;;;;;;;16.04;51.93;95450.22;10412079;28;20099;-20
2021/12/25 19:51:32;;;;;;;0.30;0.30;;;;;;;16.25;51.81;95474.41;10411534;28;20476;-20
2021/12/25 19:56:33;;;;;;;0.20;0.20;;;;;;;16.27;52.06;95492.94;10410482;28;20033;-20
2021/12/25 20:01:34;;;;;;;0.40;0.40;;;;;;;16.13;52.11;95484.66;10412334;28;20507;-20
2021/12/25 20:06:35;;;;;;;0.30;0.30;;;;;;;16.14;52.33;95494.75;10410192;28;20069;-19
2021/12/25 20:11:35;;;;;;;0.43;0.40;;;;;;;16.07;52.07;95484.72;10407889;28;20077;-20
2021/12/25 20:16:36;;;;;;;0.60;0.50;;;;;;;16.14;51.99;95492.22;10411557;28;20427;-20
2021/12/25 20:21:36;;;;;;;0.35;0.35;;;;;;;16.12;52.31;95491.38;10410270;28;20296;-20
2021/12/25 20:26:37;;;;;;;0.55;0.40;;;;;;;16.13;52.17;95493.03;10403539;28;20052;-20
2021/12/25 20:31:37;;;;;;;0.40;0.40;;;;;;;16.12;52.15;95493.91;10411948;28;20030;-19
2021/12/25 20:36:38;;;;;;;0.40;0.30;;;;;;;16.13;52.03;95490.53;10409331;28;20512;-19
2021/12/25 20:41:39;;;;;;;0.13;0.13;;;;;;;16.10;52.07;95488.03;10410317;28;20115;-20
2021/12/25 20:46:40;;;;;;;0.50;0.50;;;;;;;16.10;52.10;95487.22;10410106;28;20037;-20
2021/12/25 20:51:41;;;;;;;0.30;0.30;;;;;;;16.25;52.07;95485.34;10409524;28;20504;-20
2021/12/25 20:56:41;;;;;;;0.45;0.40;;;;;;;16.28;52.01;95492.88;10409827;28;20543;-19
2021/12/25 21:01:42;;;;;;;0.30;0.30;;;;;;;16.25;51.67;95484.50;10405274;28;20029;-20
2021/12/25 21:06:43;;;;;;;0.30;0.30;;;;;;;16.09;51.93;95473.75;10408978;28;20034;-20
2021/12/25 21:11:43;;;;;;;0.30;0.28;;;;;;;16.13;52.08;95479.59;10409106;28;20612;-19
2021/12/25 21:16:44;;;;;;;0.30;0.30;;;;;;;16.12;52.23;95483.78;10404244;28;20495;-19
2021/12/25 21:21:44;;;;;;;0.50;0.30;;;;;;;16.09;52.32;95481.31;10407761;28;20565;-20
2021/12/25 21:26:45;;;;;;;0.30;0.30;;;;;;;16.08;52.14;95482.16;10407489;28;20059;-20
2021/12/25 21:31:45;;;;;;;0.30;0.30;;;;;;;16.08;52.49;95487.22;10408673;28;20029;-20
2021/12/25 21:36:46;;;;;;;0.30;0.30;;;;;;;16.08;52.53;95482.16;10407313;28;20049;-20
2021/12/25 21:41:46;;;;;;;0.30;0.30;;;;;;;16.05;52.19;95489.78;10401373;28;20307;-20
2021/12/25 21:46:47;;;;;;;0.60;0.47;;;;;;;16.08;52.10;95497.31;10408649;28;20291;-20
2021/12/25 21:51:47;;;;;;;0.30;0.30;;;;;;;16.07;52.18;95490.59;10407256;28;20091;-19
2021/12/25 21:56:47;;;;;;;0.60;0.50;;;;;;;16.17;52.30;95489.66;10406481;28;20037;-20
2021/12/25 22:01:48;;;;;;;0.30;0.30;;;;;;;16.23;52.21;95489.59;10407713;28;20773;-19
2021/12/25 22:06:48;;;;;;;0.20;0.20;;;;;;;16.21;51.75;95496.31;10406322;28;20677;-20
2021/12/25 22:11:51;;;;;;;0.45;0.40;;;;;;;16.16;51.78;95490.50;10405564;28;20283;-20
2021/12/25 22:16:52;;;;;;;0.43;0.38;;;;;;;16.08;52.09;95493.94;10406335;28;20598;-20
2021/12/25 22:21:52;;;;;;;0.40;0.40;;;;;;;16.08;51.86;95494.78;10405982;28;20030;-20
2021/12/25 22:26:53;;;;;;;0.20;0.20;;;;;;;16.06;52.20;95495.66;10400093;28;20038;-20
2021/12/25 22:31:53;;;;;;;0.47;0.47;;;;;;;16.05;52.40;95489.78;10405966;28;20048;-21
2021/12/25 22:36:53;;;;;;;0.23;0.23;;;;;;;16.04;52.17;95498.19;10404008;28;20064;-20
2021/12/25 22:41:54;;;;;;;0.30;0.30;;;;;;;16.05;52.06;95489.78;10401425;28;20302;-20
2021/12/25 22:46:54;;;;;;;0.20;0.20;;;;;;;16.07;52.07;95485.56;10405987;28;20674;-20
2021/12/25 22:51:55;;;;;;;0.43;0.38;;;;;;;16.01;52.69;95479.72;10404688;28;20033;-20
2021/12/25 22:56:55;;;;;;;0.33;0.30;;;;;;;16.03;52.14;95481.38;10403365;28;20037;-20
2021/12/25 23:01:56;;;;;;;0.30;0.30;;;;;;;16.04;52.34;95480.50;10406339;28;20359;-20
2021/12/25 23:06:57;;;;;;;0.30;0.30;;;;;;;16.16;52.27;95480.41;10404475;28;20120;-20
2021/12/25 23:11:57;;;;;;;0.35;0.30;;;;;;;16.17;52.04;95481.22;10403352;28;20025;-20
2021/12/25 23:16:58;;;;;;;0.40;0.40;;;;;;;16.16;51.85;95482.94;10405460;28;20041;-21
2021/12/25 23:21:59;;;;;;;0.35;0.35;;;;;;;16.08;51.90;95484.69;10404654;28;20029;-19
2021/12/25 23:26:59;;;;;;;0.40;0.40;;;;;;;16.04;52.18;95485.56;10404504;28;20064;-20
2021/12/25 23:31:59;;;;;;;0.30;0.30;;;;;;;15.96;52.27;95477.22;10402929;28;20029;-20
2021/12/25 23:37:00;;;;;;;0.47;0.40;;;;;;;16.00;52.45;95483.09;10404207;28;20045;-19
2021/12/25 23:42:02;;;;;;;0.73;0.50;;;;;;;15.98;52.48;95490.69;10400579;28;20280;-20
2021/12/25 23:47:02;;;;;;;0.32;0.30;;;;;;;15.97;52.48;95483.97;10410539;28;20367;-20
2021/12/25 23:52:04;;;;;;;0.40;0.40;;;;;;;15.98;52.25;95492.38;10412445;28;20040;-20
2021/12/25 23:57:05;;;;;;;0.30;0.30;;;;;;;15.97;52.11;95485.66;10406314;28;20061;-20
